nws-alerts: Checking more than four warning/county codes can delay the loading of your pages. You should use a cron job to get the data.

Nearby METAR Reports

 

KNFE - Fentress Naval, Virginia, USA
Distance from station: ENE 5mi, 7km
Updated: Sat, 25-May-2024 8:09am EDT
Overcast
Overcast
 Wind from N
Wind: N 3 mph, 6 km/h
Temperature: 72°F, 22°C
Dew Point: 66°F, 19°C
Humidity: 83%
Barometer: 29.88 inHg, 1011.9 hPa
Clouds: Overcast
Visibility: 10 miles, 16 km
Cloud details: Overcast 500 ft
2024/05/25 12:09 KNFE 251209Z AUTO 36003KT 10SM OVC005 22/19 A2988 RMK AO2 T02220194
KCPK - Chesapeake, Virginia, USA
Distance from station: W 6mi, 9km
Updated: Sat, 25-May-2024 8:15am EDT
Overcast
Overcast
 Wind from N
Wind: N 6 mph, 9 km/h
Temperature: 70°F, 21°C
Dew Point: 68°F, 20°C
Humidity: 94%
Barometer: 29.88 inHg, 1011.9 hPa
Clouds: Overcast
Visibility: 7 miles, 11 km
Cloud details: Overcast 300 ft
2024/05/25 12:15 KCPK 251215Z AUTO 01005KT 7SM OVC003 21/20 A2988 RMK AO2 T02050197
 
KNTU - Oceana Nas/Souce, Virginia, USA
Distance from station: NE 14mi, 23km
Updated: Sat, 25-May-2024 8:14am EDT
Mist, Overcast
Mist, Overcast
 Wind from calm
Wind: Calm
Temperature: 72°F, 22°C
Dew Point: 68°F, 20°C
Humidity: 88%
Barometer: 29.87 inHg, 1011.5 hPa
Summary: Mist
Clouds: Overcast
Visibility: 6 miles, 10 km
Cloud details: Overcast 500 ft
2024/05/25 12:14 KNTU 251214Z 00000KT 6SM BR OVC005 22/20 A2987 RMK AO2 T02220200
KORF - Norfolk, Virginia, USA
Distance from station: N 15mi, 24km
Updated: Sat, 25-May-2024 7:51am EDT
Overcast
Overcast
 Wind from NE
Wind: NE 6 mph, 9 km/h
Temperature: 72°F, 22°C
Dew Point: 68°F, 20°C
Humidity: 88%
Barometer: 29.87 inHg, 1011.5 hPa
Clouds: Overcast
Visibility: 7 miles, 11 km
Cloud details: Overcast 500 ft
2024/05/25 11:51 KORF 251151Z 04005KT 7SM OVC005 22/20 A2987 RMK AO2 SLP113 T02170200 10217 20206 51010
 
KPVG - Norfolk/Hampton, Virginia, USA
Distance from station: WNW 15mi, 24km
Updated: Sat, 25-May-2024 7:56am EDT
Mist, Overcast
Mist, Overcast
 Wind from calm
Wind: Calm
Temperature: 70°F, 21°C
Dew Point: 70°F, 21°C
Humidity: 100%
Barometer: 29.89 inHg, 1012.2 hPa
Summary: Mist
Clouds: Overcast
Visibility: 5 miles, 8 km
Cloud details: Overcast 300 ft
2024/05/25 11:56 KPVG 251156Z AUTO 00000KT 5SM BR OVC003 21/21 A2989 RMK AO2 SLP122 6//// 7//// T02110211 10211 20194 53009 $
KNGU - Norfolk Nas/Cham, Virginia, USA
Distance from station: N 16mi, 26km
Updated: Sat, 25-May-2024 7:59am EDT
Mist, Overcast
Mist, Overcast
 Wind from NNW
Wind: NNW 5 mph, 7 km/h
Temperature: 72°F, 22°C
Dew Point: 70°F, 21°C
Humidity: 94%
Barometer: 29.88 inHg, 1011.9 hPa
Summary: Mist
Clouds: Overcast
Visibility: 4 miles, 6 km
Cloud details: Overcast 400 ft
2024/05/25 11:59 KNGU 251159Z 34004KT 4SM BR OVC004 22/21 A2988 RMK AO2 SLP119 70004 T02220206 10222 20206 51010
 
KSFQ - Suffolk, Virginia, USA
Distance from station: W 21mi, 34km
Updated: Sat, 25-May-2024 8:15am EDT
Partly cloudy
Partly cloudy
 Wind from calm
Wind: Calm
Temperature: 72°F, 22°C
Dew Point: 72°F, 22°C
Humidity: 100%
Barometer: 29.89 inHg, 1012.2 hPa
Clouds: Partly cloudy
Visibility: 7 miles, 11 km
Cloud details: Partly cloudy 500 ft
Partly cloudy 1200 ft
2024/05/25 12:15 KSFQ 251215Z AUTO 00000KT 7SM SCT005 SCT012 22/22 A2989 RMK AO2 T02240221
KONX - Currituck, North Carolina, USA
Distance from station: SSE 22mi, 36km
Updated: Sat, 25-May-2024 8:10am EDT
Mist, Overcast
Mist, Overcast
 Wind from calm
Wind: Calm
Temperature: 70°F, 21°C
Dew Point: 68°F, 20°C
Humidity: 94%
Barometer: 29.88 inHg, 1011.9 hPa
Summary: Mist
Clouds: Overcast
Visibility: 5 miles, 8 km
Cloud details: Overcast 300 ft
2024/05/25 12:10 KONX 251210Z AUTO 00000KT 5SM BR OVC003 21/20 A2988 RMK AO2 T02060201
 
KLFI - Langley Afb/Hamp, Virginia, USA
Distance from station: NNW 28mi, 45km
Updated: Sat, 25-May-2024 8:10am EDT
Mist, Overcast
Mist, Overcast
 Wind from ENE
Wind: ENE 5 mph, 7 km/h
Temperature: 73°F, 23°C
Dew Point: 70°F, 21°C
Humidity: 89%
Barometer: 29.87 inHg, 1011.5 hPa
Summary: Mist
Clouds: Overcast
Visibility: 6 miles, 10 km
Cloud details: Partly cloudy 700 ft
Overcast 1200 ft
2024/05/25 12:10 KLFI 251210Z AUTO 07004KT 6SM BR SCT007 OVC012 23/21 A2987 RMK AO2 CIG 007V012 CIG 008 RWY26 SLP121 $
KECG - Elizabeth City, North Carolina, USA
Distance from station: S 29mi, 46km
Updated: Sat, 25-May-2024 7:54am EDT
Mist, Overcast
Mist, Overcast
 Wind from NNE
Wind: NNE 5 mph, 7 km/h
Temperature: 70°F, 21°C
Dew Point: 68°F, 20°C
Humidity: 94%
Barometer: 29.87 inHg, 1011.5 hPa
Summary: Mist
Clouds: Overcast
Visibility: 2 miles, 3 km
Cloud details: Overcast 200 ft
2024/05/25 11:54 KECG 251154Z 02004KT 2SM BR OVC002 21/20 A2987 RMK AO2 SLP116 70064 T02060200 10206 20178 51011
 
KPHF - Newport News, Virginia, USA
Distance from station: NNW 35mi, 56km
Updated: Sat, 25-May-2024 7:54am EDT
Mist, Overcast
Mist, Overcast
 Wind from calm
Wind: Calm
Temperature: 70°F, 21°C
Dew Point: 70°F, 21°C
Humidity: 100%
Barometer: 29.88 inHg, 1011.9 hPa
Summary: Mist
Clouds: Overcast
Visibility: 4 miles, 6 km
Cloud details: Few Clouds 400 ft
Mostly cloudy 1000 ft
Overcast 1400 ft
2024/05/25 11:54 KPHF 251154Z 00000KT 4SM BR FEW004 BKN010 OVC014 21/21 A2988 RMK AO2 CIG 008V012 SLP118 70005 T02110206 10211 20200 51010
KFAF - Ft Eustis/Felker, Virginia, USA
Distance from station: NW 37mi, 60km
Updated: Sat, 25-May-2024 8:10am EDT
Overcast
Overcast
 Wind from calm
Wind: Calm
Temperature: 70°F, 21°C
Dew Point: 68°F, 20°C
Humidity: 94%
Barometer: 29.87 inHg, 1011.5 hPa
Clouds: Overcast
Visibility: 10 miles, 16 km
Cloud details: Overcast 400 ft
2024/05/25 12:10 KFAF 251210Z AUTO 00000KT 10SM OVC004 21/20 A2987 RMK AO2 SLP118 $
 
KFKN - Franklin/J B Ros, Virginia, USA
Distance from station: W 38mi, 61km
Updated: Sat, 25-May-2024 8:15am EDT
Overcast
Overcast
 Wind from calm
Wind: Calm
Temperature: 68°F, 20°C
Dew Point: 68°F, 20°C
Humidity: 100%
Barometer: 29.89 inHg, 1012.2 hPa
Clouds: Overcast
Visibility: 7 miles, 11 km
Cloud details: Overcast 300 ft
2024/05/25 12:15 KFKN 251215Z AUTO 00000KT 7SM OVC003 20/20 A2989 RMK AO2 T02010198
KJGG - Williamsburg, Virginia, USA
Distance from station: NW 47mi, 76km
Updated: Tue, 07-Feb-2023 11:35am EST
NOT Current

 Wind from ESE
Wind: ESE 3 mph, 6 km/h
Temperature: 48°F, 9°C
Dew Point: 36°F, 2°C
Humidity: 62%
Visibility: 10 miles, 16 km
2023/02/07 16:35 KJGG 071635Z AUTO 11003KT 10SM 09/02 RMK AO1
 
KAKQ - Norfolk/Wakefld, Virginia, USA
Distance from station: WNW 48mi, 78km
Updated: Sat, 25-May-2024 7:54am EDT
Fog, Overcast
Fog, Overcast
 Wind from calm
Wind: Calm
Temperature: 66°F, 19°C
Dew Point: 66°F, 19°C
Humidity: 100%
Barometer: 29.89 inHg, 1012.2 hPa
Summary: Fog
Clouds: Overcast
Visibility: less than 1/4 mile, 0.4 km
Cloud details: Overcast 200 ft
2024/05/25 11:54 KAKQ 251154Z AUTO 00000KT M1/4SM FG VV002 19/19 A2989 RMK AO2 SLP120 70011 T01940194 10194 20183 51009
KEDE - Edenton, North Carolina, USA
Distance from station: SSW 50mi, 80km
Updated: Sat, 25-May-2024 8:10am EDT
Mist, Overcast
Mist, Overcast
 Wind from NNE
Wind: NNE 3 mph, 6 km/h
Barometer: 29.90 inHg, 1012.5 hPa
Summary: Mist
Clouds: Overcast
Visibility: 3 miles, 5 km
Cloud details: Overcast 200 ft
2024/05/25 12:10 KEDE 251210Z AUTO 03003KT 3SM BR OVC002 A2990 RMK AO2